Time;durP1;ratioP1;P1;durP2;ratioP2;P2;SDS_P1;SDS_P2;PMS_P1;PMS_P2;Temp;Humidity;BMP_temperature;BMP_pressure;BME280_temperature;BME280_humidity;BME280_pressure;Samples;Min_cycle;Max_cycle;Signal;HPM_P1;HPM_P2
2024/01/08 00:01:50;;;;;;;1.33;1.10;;;;;;;-0.51;93.07;101332.41;4967511;28;20202;-71
2024/01/08 00:04:17;;;;;;;1.57;1.20;;;;;;;-0.51;93.64;101343.72;4966402;28;20212;-71
2024/01/08 00:06:43;;;;;;;1.63;1.00;;;;;;;-0.49;93.29;101341.22;4968443;28;20209;-71
2024/01/08 00:09:10;;;;;;;1.70;1.30;;;;;;;-0.51;94.23;101345.41;4964811;28;20386;-70
2024/01/08 00:11:36;;;;;;;1.10;0.63;;;;;;;-0.52;93.83;101336.69;4967844;28;20276;-71
2024/01/08 00:14:03;;;;;;;0.60;0.60;;;;;;;-0.50;92.20;101357.63;4968066;28;20292;-72
2024/01/08 00:16:29;;;;;;;0.60;0.60;;;;;;;-0.50;91.22;101342.00;4965378;28;20198;-71
2024/01/08 00:18:56;;;;;;;0.73;0.60;;;;;;;-0.55;92.49;101338.16;4965324;28;20315;-71
2024/01/08 00:21:22;;;;;;;1.30;1.00;;;;;;;-0.54;92.88;101333.09;4967143;28;20222;-71
2024/01/08 00:23:49;;;;;;;3.10;1.20;;;;;;;-0.54;94.49;101342.59;4967526;28;20198;-71
2024/01/08 00:26:16;;;;;;;1.40;1.10;;;;;;;-0.58;94.50;101341.47;4965996;28;20197;-71
2024/01/08 00:28:42;;;;;;;1.00;0.90;;;;;;;-0.54;94.95;101332.19;4968613;28;20233;-71
2024/01/08 00:31:09;;;;;;;1.33;0.63;;;;;;;-0.52;94.65;101334.09;4967437;28;20304;-71
2024/01/08 00:33:35;;;;;;;1.30;0.60;;;;;;;-0.50;96.61;101345.50;4969331;28;20219;-71
2024/01/08 00:36:02;;;;;;;0.83;0.60;;;;;;;-0.56;95.58;101342.47;4966804;28;20346;-71
2024/01/08 00:38:28;;;;;;;1.07;0.90;;;;;;;-0.51;95.22;101327.19;4967335;28;20284;-71
2024/01/08 00:40:55;;;;;;;1.40;1.17;;;;;;;-0.58;96.75;101336.25;4968476;28;20609;-71
2024/01/08 00:43:21;;;;;;;1.07;0.97;;;;;;;-0.52;95.28;101334.09;4964053;28;20200;-72
2024/01/08 00:45:48;;;;;;;2.03;1.30;;;;;;;-0.53;95.12;101326.19;4967724;28;20212;-70
2024/01/08 00:48:14;;;;;;;0.60;0.60;;;;;;;-0.50;95.28;101323.78;4966572;28;20230;-71
2024/01/08 00:50:40;;;;;;;2.67;1.23;;;;;;;-0.51;95.36;101330.69;4967087;28;20709;-71
2024/01/08 00:53:09;;;;;;;1.70;1.40;;;;;;;-0.58;96.53;101325.84;4966578;28;20346;-70
2024/01/08 00:55:35;;;;;;;1.33;0.70;;;;;;;-0.54;98.69;101340.88;4969798;28;20213;-70
2024/01/08 00:58:01;;;;;;;0.40;0.40;;;;;;;-0.57;99.76;101334.56;4961431;28;20209;-69
2024/01/08 01:00:28;;;;;;;2.87;1.20;;;;;;;-0.59;100.00;101324.03;4967403;28;20225;-70
2024/01/08 01:02:54;;;;;;;1.07;0.50;;;;;;;-0.50;99.72;101336.81;4969932;28;20202;-71
2024/01/08 01:05:21;;;;;;;0.60;0.60;;;;;;;-0.48;98.46;101328.31;4969679;28;20395;-71
2024/01/08 01:07:48;;;;;;;0.60;0.60;;;;;;;-0.47;98.97;101330.13;4969103;28;20210;-71
2024/01/08 01:10:14;;;;;;;0.80;0.80;;;;;;;-0.54;98.55;101322.69;4968443;28;20268;-71
2024/01/08 01:12:40;;;;;;;0.60;0.60;;;;;;;-0.55;97.90;101330.38;4971933;28;20690;-70
2024/01/08 01:15:07;;;;;;;0.60;0.60;;;;;;;-0.48;97.66;101332.63;4971043;28;20205;-71
2024/01/08 01:17:34;;;;;;;0.50;0.50;;;;;;;-0.42;95.38;101333.97;4969039;28;20214;-71
2024/01/08 01:20:00;;;;;;;0.50;0.50;;;;;;;-0.46;95.54;101337.13;4971527;28;20235;-70
2024/01/08 01:22:27;;;;;;;1.77;1.20;;;;;;;-0.48;96.80;101343.94;4967017;28;20209;-71
2024/01/08 01:24:53;;;;;;;1.20;1.10;;;;;;;-0.49;98.00;101329.09;4969426;28;20241;-72
2024/01/08 01:27:20;;;;;;;1.53;0.70;;;;;;;-0.50;97.62;101327.31;4969060;28;20202;-71
2024/01/08 01:29:46;;;;;;;0.57;0.57;;;;;;;-0.46;97.57;101338.84;4970057;28;20230;-70
2024/01/08 01:32:13;;;;;;;0.50;0.50;;;;;;;-0.46;97.17;101338.84;4966841;28;20202;-69
2024/01/08 01:34:39;;;;;;;0.33;0.33;;;;;;;-0.43;97.37;101341.66;4969239;28;20221;-71
2024/01/08 01:37:05;;;;;;;0.43;0.43;;;;;;;-0.43;97.02;101339.97;4968966;28;20212;-71
2024/01/08 01:39:32;;;;;;;1.00;0.90;;;;;;;-0.42;97.33;101343.47;4969234;28;20226;-68
2024/01/08 01:41:59;;;;;;;1.50;1.27;;;;;;;-0.45;98.75;101338.94;4970548;28;20210;-71
2024/01/08 01:44:25;;;;;;;1.80;0.60;;;;;;;-0.47;98.51;101344.81;4969896;28;20194;-70
2024/01/08 01:46:54;;;;;;;1.10;0.87;;;;;;;-0.47;99.56;101337.94;4968267;28;20216;-71
2024/01/08 01:49:22;;;;;;;0.63;0.63;;;;;;;-0.46;99.47;101339.75;4968911;28;20670;-70
2024/01/08 01:51:49;;;;;;;0.50;0.50;;;;;;;-0.45;100.00;101336.34;4971904;28;20645;-71
2024/01/08 01:54:19;;;;;;;0.70;0.70;;;;;;;-0.46;100.00;101336.22;4968983;28;20305;-71
2024/01/08 01:56:53;;;;;;;0.83;0.77;;;;;;;-0.45;100.00;101345.84;4971208;28;20214;-71
2024/01/08 01:59:21;;;;;;;0.50;0.50;;;;;;;-0.38;100.00;101350.72;4968737;28;20250;-71
2024/01/08 02:01:47;;;;;;;0.60;0.60;;;;;;;-0.44;100.00;101338.16;4968140;28;20672;-70
2024/01/08 02:04:15;;;;;;;0.50;0.50;;;;;;;-0.47;100.00;101332.72;4966874;28;20201;-72
2024/01/08 02:06:44;;;;;;;0.70;0.70;;;;;;;-0.51;100.00;101335.91;4969079;28;20253;-71
2024/01/08 02:09:13;;;;;;;0.53;0.53;;;;;;;-0.50;100.00;101340.31;4968286;28;20288;-70
2024/01/08 02:11:40;;;;;;;0.60;0.60;;;;;;;-0.46;100.00;101336.22;4967723;28;20211;-70
2024/01/08 02:14:06;;;;;;;1.07;0.70;;;;;;;-0.47;100.00;101340.53;4969704;28;20228;-72
2024/01/08 02:16:34;;;;;;;1.33;0.70;;;;;;;-0.53;100.00;101339.19;4969544;28;20280;-71
2024/01/08 02:19:02;;;;;;;1.07;0.63;;;;;;;-0.52;100.00;101336.69;4969819;28;20688;-71
2024/01/08 02:21:28;;;;;;;0.63;0.63;;;;;;;-0.51;100.00;101330.69;4970633;28;20256;-70
2024/01/08 02:23:55;;;;;;;0.70;0.70;;;;;;;-0.49;100.00;101334.31;4970683;28;20230;-71
2024/01/08 02:26:21;;;;;;;1.23;0.80;;;;;;;-0.52;100.00;101338.41;4970579;28;20587;-70
2024/01/08 02:28:48;;;;;;;0.80;0.80;;;;;;;-0.56;100.00;101334.66;4964295;28;20213;-70
2024/01/08 02:31:14;;;;;;;0.83;0.60;;;;;;;-0.53;100.00;101341.78;4967203;28;20217;-71
2024/01/08 02:33:41;;;;;;;0.77;0.50;;;;;;;-0.50;100.00;101334.19;4970583;28;20218;-71
2024/01/08 02:36:07;;;;;;;5.57;0.63;;;;;;;-0.56;100.00;101337.28;4968929;28;20205;-71
2024/01/08 02:38:34;;;;;;;0.83;0.80;;;;;;;-0.55;100.00;101339.06;4967726;28;20257;-71
2024/01/08 02:41:00;;;;;;;1.00;0.90;;;;;;;-0.59;100.00;101336.16;4972224;28;20289;-71
2024/01/08 02:43:26;;;;;;;0.60;0.60;;;;;;;-0.55;100.00;101328.66;4970078;28;20213;-70
2024/01/08 02:45:53;;;;;;;1.70;0.63;;;;;;;-0.56;100.00;101344.16;4965624;28;20216;-70
2024/01/08 02:48:19;;;;;;;1.63;1.30;;;;;;;-0.69;100.00;101327.69;4968606;28;20620;-70
2024/01/08 02:50:46;;;;;;;1.80;1.40;;;;;;;-0.60;100.00;101347.34;4970222;28;20732;-71
2024/01/08 02:53:12;;;;;;;0.57;0.57;;;;;;;-0.69;100.00;101318.97;4966299;28;20230;-70
2024/01/08 02:55:39;;;;;;;1.03;0.70;;;;;;;-0.59;100.00;101347.44;4968669;28;20231;-71
2024/01/08 02:58:05;;;;;;;0.73;0.73;;;;;;;-0.59;100.00;101346.56;4966359;28;20225;-71
2024/01/08 03:00:32;;;;;;;1.17;0.70;;;;;;;-0.64;100.00;101338.41;4966393;28;20232;-71
2024/01/08 03:02:58;;;;;;;1.00;1.00;;;;;;;-0.58;100.00;101345.75;4967700;28;20233;-70
2024/01/08 03:05:24;;;;;;;0.57;0.53;;;;;;;-0.60;100.00;101343.03;4968346;28;21402;-70
2024/01/08 03:07:51;;;;;;;0.73;0.73;;;;;;;-0.73;100.00;101338.66;4963254;28;20687;-71
2024/01/08 03:10:17;;;;;;;1.60;1.30;;;;;;;-0.66;100.00;101345.19;4965995;28;20328;-71
2024/01/08 03:12:44;;;;;;;0.43;0.43;;;;;;;-0.68;100.00;101350.28;4970270;28;20214;-70
2024/01/08 03:15:10;;;;;;;0.80;0.80;;;;;;;-0.61;100.00;101351.66;4969850;28;20212;-71
2024/01/08 03:17:37;;;;;;;1.07;0.90;;;;;;;-0.68;100.00;101346.78;4966357;28;20292;-70
2024/01/08 03:20:04;;;;;;;2.13;1.30;;;;;;;-0.62;100.00;101349.84;4968088;28;20659;-70
2024/01/08 03:22:31;;;;;;;1.27;1.17;;;;;;;-0.68;100.00;101352.91;4968383;28;20645;-70
2024/01/08 03:24:58;;;;;;;0.77;0.63;;;;;;;-0.71;100.00;101349.16;4969427;28;20202;-70
2024/01/08 03:27:24;;;;;;;1.03;0.83;;;;;;;-0.71;100.00;101357.88;4968037;28;20205;-71
2024/01/08 03:29:50;;;;;;;1.47;0.90;;;;;;;-0.81;100.00;101346.66;4969595;28;20225;-71
2024/01/08 03:32:17;;;;;;;0.73;0.67;;;;;;;-0.74;100.00;101351.53;4968230;28;20216;-71
2024/01/08 03:34:43;;;;;;;0.90;0.60;;;;;;;-0.74;100.00;101357.66;4968648;28;20229;-71
2024/01/08 03:37:10;;;;;;;0.87;0.70;;;;;;;-0.73;100.00;101355.97;4966720;28;20263;-71
2024/01/08 03:39:36;;;;;;;3.23;1.00;;;;;;;-0.80;100.00;101345.88;4969080;28;20233;-71
2024/01/08 03:42:03;;;;;;;2.40;1.00;;;;;;;-0.76;100.00;101350.53;4967922;28;20576;-69
2024/01/08 03:44:29;;;;;;;0.80;0.80;;;;;;;-0.76;100.00;101351.44;4966502;28;20206;-71
2024/01/08 03:46:56;;;;;;;1.07;0.97;;;;;;;-0.79;100.00;101360.72;4967458;28;20578;-70
2024/01/08 03:49:22;;;;;;;0.60;0.60;;;;;;;-0.77;100.00;101349.63;4966569;28;20686;-71
2024/01/08 03:51:49;;;;;;;0.60;0.60;;;;;;;-0.76;100.00;101360.94;4969591;28;20209;-69
2024/01/08 03:54:15;;;;;;;2.00;1.67;;;;;;;-0.72;100.00;101358.66;4964478;28;20248;-71
2024/01/08 03:56:42;;;;;;;3.10;1.40;;;;;;;-0.78;100.00;101354.72;4970412;28;20228;-71
2024/01/08 03:59:08;;;;;;;1.60;1.30;;;;;;;-0.75;100.00;101361.03;4969302;28;20311;-70
2024/01/08 04:01:43;;;;;;;2.33;1.47;;;;;;;-0.85;100.00;101340.34;4967236;28;20209;-70
2024/01/08 04:04:09;;;;;;;0.53;0.50;;;;;;;-0.83;100.00;101343.94;4969924;28;20280;-71
2024/01/08 04:06:35;;;;;;;1.33;0.90;;;;;;;-0.76;100.00;101359.25;4969977;28;20284;-70
2024/01/08 04:09:02;;;;;;;1.70;1.33;;;;;;;-0.75;100.00;101353.25;4964167;28;20665;-71
2024/01/08 04:11:29;;;;;;;1.70;1.40;;;;;;;-0.80;100.00;101353.66;4968038;28;20434;-70
2024/01/08 04:13:56;;;;;;;0.77;0.77;;;;;;;-0.88;100.00;101341.81;4970932;28;20224;-70
2024/01/08 04:16:23;;;;;;;1.93;1.57;;;;;;;-0.86;97.23;101356.72;4967337;28;20225;-70
2024/01/08 04:18:49;;;;;;;0.67;0.60;;;;;;;-0.82;95.16;101357.84;4965453;28;20205;-71
2024/01/08 04:21:17;;;;;;;1.77;1.10;;;;;;;-0.80;92.26;101366.66;4967798;28;20221;-70
2024/01/08 04:23:43;;;;;;;0.87;0.73;;;;;;;-0.87;92.06;101354.91;4969211;28;20289;-71
2024/01/08 04:26:25;;;;;;;1.20;0.77;;;;;;;-0.82;92.03;101361.34;4967604;28;20280;-71
2024/01/08 04:28:52;;;;;;;0.77;0.77;;;;;;;-0.79;93.21;101373.72;4967890;28;20695;-71
2024/01/08 04:31:19;;;;;;;1.83;0.50;;;;;;;-0.80;94.67;101369.28;4974965;28;20244;-71
2024/01/08 04:33:46;;;;;;;2.20;0.80;;;;;;;-0.82;95.05;101363.06;4966115;28;20234;-70
2024/01/08 04:36:13;;;;;;;0.60;0.60;;;;;;;-0.79;94.60;101378.91;4971692;28;20303;-70
2024/01/08 04:38:40;;;;;;;0.50;0.50;;;;;;;-0.79;94.08;101377.22;4970834;28;20288;-70
2024/01/08 04:41:07;;;;;;;0.70;0.70;;;;;;;-0.82;94.21;101363.06;4970886;28;20604;-70
2024/01/08 04:43:36;;;;;;;1.93;1.40;;;;;;;-0.85;95.50;101366.34;4970701;28;20263;-70
2024/01/08 04:46:03;;;;;;;0.70;0.70;;;;;;;-0.77;95.93;101385.13;4973041;28;20201;-70
2024/01/08 04:48:30;;;;;;;0.40;0.40;;;;;;;-0.76;95.35;101368.75;4971508;28;20229;-70
2024/01/08 04:50:57;;;;;;;0.93;0.77;;;;;;;-0.84;96.10;101364.63;4967330;28;20225;-70
2024/01/08 04:53:23;;;;;;;1.80;1.40;;;;;;;-0.85;97.84;101374.13;4970855;28;20220;-71
2024/01/08 04:55:50;;;;;;;1.93;1.60;;;;;;;-0.84;98.88;101372.44;4973654;28;20292;-70
2024/01/08 04:58:17;;;;;;;1.50;1.40;;;;;;;-0.84;100.00;101372.44;4969718;28;20208;-69
2024/01/08 05:00:43;;;;;;;2.53;1.57;;;;;;;-0.81;100.00;101375.25;4967252;28;20696;-70
2024/01/08 05:03:10;;;;;;;0.93;0.90;;;;;;;-0.85;100.00;101368.94;4970074;28;20464;-71
2024/01/08 05:05:36;;;;;;;1.33;0.87;;;;;;;-0.84;100.00;101373.34;4972636;28;20202;-71
2024/01/08 05:08:03;;;;;;;0.60;0.60;;;;;;;-0.81;100.00;101370.06;4968574;28;20202;-70
2024/01/08 05:10:30;;;;;;;1.03;0.93;;;;;;;-0.86;100.00;101374.03;4971916;28;20236;-72
2024/01/08 05:12:56;;;;;;;2.40;1.60;;;;;;;-0.81;100.00;101386.56;4972227;28;20201;-71
2024/01/08 05:15:23;;;;;;;0.87;0.83;;;;;;;-0.78;100.00;101372.91;4967560;28;21513;-70
2024/01/08 05:17:50;;;;;;;2.33;1.00;;;;;;;-0.82;100.00;101376.97;4970398;28;20674;-71
2024/01/08 05:20:16;;;;;;;0.77;0.50;;;;;;;-0.80;100.00;101392.66;4969025;28;20713;-70
2024/01/08 05:22:43;;;;;;;1.50;0.90;;;;;;;-0.91;100.00;101363.28;4970243;28;20201;-69
2024/01/08 05:25:09;;;;;;;1.23;0.60;;;;;;;-0.80;100.00;101369.28;4969187;28;20199;-69
2024/01/08 05:27:36;;;;;;;1.30;0.60;;;;;;;-0.80;100.00;101369.28;4971124;28;20632;-70
2024/01/08 05:30:04;;;;;;;0.70;0.70;;;;;;;-0.80;100.00;101379.66;4970957;28;20233;-69
2024/01/08 05:32:31;;;;;;;0.83;0.83;;;;;;;-0.84;100.00;101372.44;4965866;28;20201;-70
2024/01/08 05:34:58;;;;;;;2.83;1.80;;;;;;;-0.85;100.00;101384.53;4968671;28;20222;-70
2024/01/08 05:37:24;;;;;;;2.30;1.77;;;;;;;-0.82;100.00;101389.06;4969568;28;20229;-70
2024/01/08 05:39:51;;;;;;;3.60;1.97;;;;;;;-0.83;100.00;101390.75;4971889;28;20265;-70
2024/01/08 05:42:17;;;;;;;1.33;0.90;;;;;;;-0.85;100.00;101389.72;4970135;28;20198;-70
2024/01/08 05:44:44;;;;;;;11.43;0.93;;;;;;;-0.86;100.00;101392.22;4969245;28;20218;-70
2024/01/08 05:47:10;;;;;;;3.03;1.97;;;;;;;-0.85;100.00;101392.34;4967531;28;20653;-70
2024/01/08 05:49:38;;;;;;;1.67;1.27;;;;;;;-0.83;100.00;101387.25;4969343;28;20234;-70
2024/01/08 05:52:04;;;;;;;1.23;0.97;;;;;;;-0.89;100.00;101400.69;4969803;28;20764;-69
2024/01/08 05:54:31;;;;;;;1.53;1.10;;;;;;;-0.85;100.00;101396.63;4972352;28;20228;-70
2024/01/08 05:56:57;;;;;;;1.33;1.00;;;;;;;-0.89;100.00;101392.00;4971121;28;20225;-70
2024/01/08 05:59:23;;;;;;;0.63;0.63;;;;;;;-0.84;100.00;101388.03;4970115;28;20209;-69
2024/01/08 06:01:50;;;;;;;1.63;0.87;;;;;;;-0.88;100.00;101399.00;4965253;28;20308;-70
2024/01/08 06:04:16;;;;;;;1.67;1.00;;;;;;;-0.94;100.00;101394.25;4971711;28;20586;-68
2024/01/08 06:06:43;;;;;;;1.07;0.80;;;;;;;-0.91;100.00;101397.09;4970791;28;20206;-69
2024/01/08 06:09:09;;;;;;;1.00;0.80;;;;;;;-0.90;100.00;101406.69;4971297;28;20749;-69
2024/01/08 06:11:36;;;;;;;1.87;1.10;;;;;;;-0.89;100.00;101405.91;4971703;28;20500;-69
2024/01/08 06:14:03;;;;;;;0.60;0.60;;;;;;;-0.89;100.00;101400.69;4971913;28;20226;-69
2024/01/08 06:16:35;;;;;;;1.03;0.93;;;;;;;-0.92;100.00;101395.28;4967613;28;20213;-71
2024/01/08 06:19:02;;;;;;;0.60;0.60;;;;;;;-0.86;100.00;101398.31;4969186;28;20209;-69
2024/01/08 06:21:29;;;;;;;3.47;2.23;;;;;;;-0.86;100.00;101392.22;4970940;28;20261;-69
2024/01/08 06:23:55;;;;;;;0.83;0.80;;;;;;;-0.96;100.00;101393.22;4971948;28;20292;-70
2024/01/08 06:26:21;;;;;;;0.97;0.90;;;;;;;-0.96;100.00;101390.63;4970780;28;20202;-69
2024/01/08 06:28:48;;;;;;;1.47;0.90;;;;;;;-0.98;100.00;101393.13;4971202;28;20205;-69
2024/01/08 06:31:14;;;;;;;1.50;1.03;;;;;;;-0.88;100.00;101418.09;4969220;28;20229;-69
2024/01/08 06:33:42;;;;;;;1.37;0.77;;;;;;;-0.96;100.00;101408.84;4971060;28;20199;-71
2024/01/08 06:36:08;;;;;;;1.43;1.00;;;;;;;-0.95;100.00;101405.44;4971826;28;20288;-70
2024/01/08 06:38:35;;;;;;;0.80;0.73;;;;;;;-0.93;100.00;101400.34;4969976;28;20204;-70
2024/01/08 06:41:02;;;;;;;1.17;0.70;;;;;;;-0.96;100.00;101390.63;4965201;28;20296;-68
2024/01/08 06:43:28;;;;;;;0.73;0.73;;;;;;;-0.91;100.00;101402.28;4970802;28;20212;-70
2024/01/08 06:45:55;;;;;;;0.87;0.60;;;;;;;-0.89;100.00;101400.69;4969347;28;20285;-69
2024/01/08 06:48:21;;;;;;;1.90;1.00;;;;;;;-0.96;100.00;101391.53;4969857;28;20202;-69
2024/01/08 06:50:48;;;;;;;1.03;1.00;;;;;;;-0.94;100.00;101404.66;4968716;28;20232;-69
2024/01/08 06:53:14;;;;;;;0.87;0.60;;;;;;;-0.95;100.00;101392.44;4969283;28;20310;-68
2024/01/08 06:55:41;;;;;;;0.80;0.70;;;;;;;-0.89;100.00;101410.19;4969882;28;20275;-68
2024/01/08 06:58:07;;;;;;;1.77;0.73;;;;;;;-0.91;100.00;101396.19;4968834;28;20292;-69
2024/01/08 07:00:34;;;;;;;2.87;2.00;;;;;;;-0.93;100.00;101398.66;4967802;28;20240;-68
2024/01/08 07:03:00;;;;;;;0.57;0.57;;;;;;;-0.88;100.00;101404.19;4970131;28;20252;-71
2024/01/08 07:05:27;;;;;;;0.70;0.70;;;;;;;-0.86;100.00;101400.94;4965569;28;20204;-70
2024/01/08 07:07:54;;;;;;;1.53;0.90;;;;;;;-0.85;100.00;101409.63;4970309;28;20244;-69
2024/01/08 07:10:20;;;;;;;1.53;0.90;;;;;;;-0.89;100.00;101403.28;4957271;28;20306;-69
2024/01/08 07:12:46;;;;;;;1.10;0.73;;;;;;;-0.85;100.00;101404.44;4965203;28;20213;-69
2024/01/08 07:15:38;;;;;;;1.30;0.57;;;;;;;-0.82;100.00;101421.16;4954611;28;20229;-69
2024/01/08 07:18:08;;;;;;;0.67;0.60;;;;;;;-0.85;100.00;101413.13;4966573;28;20292;-68
2024/01/08 07:20:37;;;;;;;4.07;1.97;;;;;;;-0.83;100.00;101423.66;4967493;28;20221;-69
2024/01/08 07:23:05;;;;;;;1.23;0.87;;;;;;;-0.84;100.00;101432.25;4965482;28;20288;-70
2024/01/08 07:25:34;;;;;;;1.50;1.07;;;;;;;-0.88;100.00;101425.00;4970122;28;20631;-69
2024/01/08 07:28:01;;;;;;;1.17;0.87;;;;;;;-1.05;100.00;101403.84;4970360;28;20724;-69
2024/01/08 07:30:27;;;;;;;2.90;1.17;;;;;;;-0.94;100.00;101430.66;4970198;28;20248;-70
2024/01/08 07:32:53;;;;;;;1.03;0.90;;;;;;;-0.95;100.00;101429.75;4969337;28;20212;-69
2024/01/08 07:35:20;;;;;;;1.13;0.97;;;;;;;-0.98;100.00;101426.91;4970710;28;20228;-69
2024/01/08 07:37:49;;;;;;;0.70;0.70;;;;;;;-0.98;100.00;101429.50;4970167;28;20687;-70
2024/01/08 07:40:15;;;;;;;1.47;1.10;;;;;;;-0.99;100.00;101440.69;4970228;28;20296;-70
2024/01/08 07:42:42;;;;;;;1.33;1.23;;;;;;;-1.02;100.00;101434.38;4965835;28;20206;-70
2024/01/08 07:45:08;;;;;;;4.57;2.70;;;;;;;-1.02;100.00;101439.56;4964468;28;20198;-70
2024/01/08 07:47:35;;;;;;;0.73;0.73;;;;;;;-1.01;100.00;101436.19;4969920;28;20208;-70
2024/01/08 07:50:01;;;;;;;0.90;0.87;;;;;;;-1.05;100.00;101440.25;4967322;28;20239;-74
2024/01/08 07:52:28;;;;;;;0.73;0.73;;;;;;;-1.03;100.00;101451.66;4967563;28;20216;-69
2024/01/08 07:55:04;;;;;;;1.90;1.20;;;;;;;-1.00;100.00;101448.38;4969674;28;21460;-73
2024/01/08 07:57:31;;;;;;;4.37;2.23;;;;;;;-1.03;100.00;101446.47;4969521;28;20280;-72
2024/01/08 08:00:00;;;;;;;1.47;0.77;;;;;;;-1.00;100.00;101451.00;4968313;28;20709;-70
2024/01/08 08:02:26;;;;;;;1.60;1.10;;;;;;;-1.02;100.00;101452.56;4968571;28;20232;-71
2024/01/08 08:04:53;;;;;;;2.00;1.33;;;;;;;-1.01;100.00;101451.78;4970658;28;20202;-68
2024/01/08 08:07:20;;;;;;;1.10;0.97;;;;;;;-0.99;100.00;101458.91;4966932;28;20202;-71
2024/01/08 08:09:46;;;;;;;1.90;1.07;;;;;;;-0.96;100.00;101451.34;4965859;28;20646;-71
2024/01/08 08:12:13;;;;;;;1.17;0.80;;;;;;;-0.97;100.00;101453.81;4970302;28;20565;-71
2024/01/08 08:14:39;;;;;;;2.63;1.30;;;;;;;-0.97;100.00;101457.31;4970014;28;21450;-69
2024/01/08 08:17:05;;;;;;;2.87;1.10;;;;;;;-0.88;100.00;101464.00;4968551;28;20316;-69
2024/01/08 08:19:32;;;;;;;3.40;2.23;;;;;;;-0.87;100.00;101458.91;4970048;28;20226;-71
2024/01/08 08:21:59;;;;;;;3.53;2.40;;;;;;;-0.76;100.00;101471.06;4969043;28;20228;-70
2024/01/08 08:24:25;;;;;;;1.30;1.07;;;;;;;-0.77;100.00;101463.16;4970371;28;20288;-67
2024/01/08 08:26:52;;;;;;;1.27;0.80;;;;;;;-0.76;100.00;101468.47;4965100;28;20288;-70
2024/01/08 08:29:21;;;;;;;1.70;0.90;;;;;;;-0.75;100.00;101477.16;4969584;28;20231;-70
2024/01/08 08:31:47;;;;;;;2.37;1.37;;;;;;;-0.76;100.00;101473.66;4969524;28;20238;-71
2024/01/08 08:34:14;;;;;;;6.83;2.70;;;;;;;-0.83;100.00;101463.56;4968255;28;20256;-69
2024/01/08 08:36:41;;;;;;;1.23;1.13;;;;;;;-0.85;100.00;101479.84;4967940;28;20337;-69
2024/01/08 08:39:08;;;;;;;0.60;0.60;;;;;;;-0.87;100.00;101474.53;4969660;28;20241;-68
2024/01/08 08:41:36;;;;;;;0.97;0.83;;;;;;;-0.88;100.00;101484.81;4966708;28;20869;-69
2024/01/08 08:44:02;;;;;;;0.60;0.50;;;;;;;-0.89;100.00;101496.91;4964603;28;20617;-68
2024/01/08 08:46:29;;;;;;;3.73;1.43;;;;;;;-0.96;99.84;101476.44;4967220;28;20208;-69
2024/01/08 08:48:55;;;;;;;4.80;2.40;;;;;;;-0.95;98.03;101483.44;4969537;28;20209;-67
2024/01/08 08:51:22;;;;;;;2.27;1.10;;;;;;;-0.87;97.53;101486.63;4968338;28;20956;-67
2024/01/08 08:53:48;;;;;;;4.23;1.33;;;;;;;-0.63;96.37;101497.19;4968800;28;20212;-70
2024/01/08 08:56:16;;;;;;;1.37;1.27;;;;;;;-0.56;94.27;101492.44;4970323;28;20747;-69
2024/01/08 08:58:42;;;;;;;1.17;1.00;;;;;;;-0.51;94.09;101496.28;4968610;28;20292;-69
2024/01/08 09:01:11;;;;;;;0.60;0.60;;;;;;;-0.53;91.82;101484.88;4949501;28;20328;-68
2024/01/08 09:03:37;;;;;;;1.40;1.17;;;;;;;-0.60;90.14;101496.53;4963816;28;20229;-69
2024/01/08 09:06:06;;;;;;;2.30;1.10;;;;;;;-0.65;88.84;101501.38;4969453;28;20626;-72
2024/01/08 09:08:33;;;;;;;1.97;0.90;;;;;;;-0.68;90.15;101497.66;4967937;28;20211;-70
2024/01/08 09:10:59;;;;;;;1.97;1.10;;;;;;;-0.65;89.67;101508.28;4964061;28;20304;-70
2024/01/08 09:13:26;;;;;;;1.80;0.70;;;;;;;-0.72;89.06;101493.00;4968658;28;20733;-68
2024/01/08 09:15:52;;;;;;;2.50;1.80;;;;;;;-0.75;90.87;101501.47;4967928;28;20222;-70
2024/01/08 09:18:19;;;;;;;2.10;1.17;;;;;;;-0.73;90.54;101509.41;4965035;28;20206;-68
2024/01/08 09:20:45;;;;;;;2.10;1.23;;;;;;;-0.72;91.61;101506.00;4970972;28;20229;-71
2024/01/08 09:23:12;;;;;;;0.73;0.73;;;;;;;-0.66;89.31;101517.78;4972536;28;20201;-70
2024/01/08 09:25:38;;;;;;;1.03;0.87;;;;;;;-0.68;87.74;101519.34;4972141;28;20285;-70
2024/01/08 09:28:05;;;;;;;3.47;1.10;;;;;;;-0.72;88.53;101512.13;4965356;28;20232;-72
2024/01/08 09:30:31;;;;;;;6.40;2.73;;;;;;;-0.76;88.52;101507.47;4964920;28;20516;-70
2024/01/08 09:32:58;;;;;;;1.73;0.90;;;;;;;-0.63;88.80;101507.59;4971650;28;20213;-70
2024/01/08 09:35:25;;;;;;;2.90;1.20;;;;;;;-0.56;87.51;101519.38;4971052;28;20214;-70
2024/01/08 09:37:52;;;;;;;1.47;0.90;;;;;;;-0.52;85.50;101510.09;4970921;28;20301;-69
2024/01/08 09:40:18;;;;;;;1.73;1.20;;;;;;;-0.42;85.29;101512.59;4972741;28;20686;-70
2024/01/08 09:42:45;;;;;;;4.10;2.70;;;;;;;-0.31;84.48;101524.72;4970632;28;20202;-70
2024/01/08 09:45:12;;;;;;;1.17;0.83;;;;;;;-0.26;83.27;101510.38;4968889;28;20245;-71
2024/01/08 09:47:40;;;;;;;1.23;0.77;;;;;;;-0.23;82.23;101520.09;4963201;28;20205;-70
2024/01/08 09:50:10;;;;;;;2.40;1.40;;;;;;;-0.06;83.88;101515.31;4966259;28;20492;-69
2024/01/08 09:52:40;;;;;;;1.73;0.93;;;;;;;0.09;81.24;101514.66;4965706;28;20207;-69
2024/01/08 09:55:11;;;;;;;1.03;0.83;;;;;;;-0.13;80.31;101520.88;4970164;28;20246;-71
2024/01/08 09:57:38;;;;;;;2.43;1.47;;;;;;;-0.26;80.29;101515.56;4964705;28;20208;-71
2024/01/08 10:00:05;;;;;;;2.70;1.30;;;;;;;-0.27;80.08;101507.66;4972497;28;20318;-72
2024/01/08 10:02:32;;;;;;;2.20;1.43;;;;;;;-0.20;80.73;101515.13;4968342;28;20202;-72
2024/01/08 10:05:00;;;;;;;2.00;1.40;;;;;;;-0.24;81.07;101513.97;4966399;28;20200;-72
2024/01/08 10:07:26;;;;;;;1.83;1.27;;;;;;;-0.27;81.09;101513.75;4967981;28;20237;-70
2024/01/08 10:09:53;;;;;;;1.60;1.00;;;;;;;-0.37;81.04;101495.66;4969081;28;20666;-69
2024/01/08 10:12:19;;;;;;;4.97;3.10;;;;;;;-0.18;81.87;101508.31;4971500;28;20206;-70
2024/01/08 10:14:46;;;;;;;1.67;1.30;;;;;;;-0.19;82.05;101502.22;4968163;28;20546;-69
2024/01/08 10:17:14;;;;;;;0.83;0.83;;;;;;;-0.28;81.00;101513.66;4970779;28;20202;-71
2024/01/08 10:19:41;;;;;;;1.93;1.57;;;;;;;-0.38;80.28;101507.75;4969255;28;20223;-68
2024/01/08 10:22:12;;;;;;;6.73;2.60;;;;;;;-0.48;79.30;101514.75;4960139;28;20252;-71
2024/01/08 10:24:41;;;;;;;2.23;1.20;;;;;;;-0.53;79.64;101510.88;4968593;28;20294;-72
2024/01/08 10:27:08;;;;;;;3.77;1.40;;;;;;;-0.45;78.89;101512.38;4970029;28;20226;-71
2024/01/08 10:29:39;;;;;;;2.27;1.20;;;;;;;-0.53;77.14;101510.88;4967356;28;20722;-70
2024/01/08 10:32:06;;;;;;;3.20;1.30;;;;;;;-0.48;76.69;101515.66;4970748;28;20331;-71
2024/01/08 10:34:36;;;;;;;4.50;2.60;;;;;;;-0.40;75.24;101504.16;4968712;28;20213;-73
2024/01/08 10:37:02;;;;;;;1.13;1.03;;;;;;;-0.45;74.04;101502.84;4968327;28;20223;-71
2024/01/08 10:39:30;;;;;;;3.80;2.30;;;;;;;-0.39;73.22;101516.34;4968178;28;20240;-72
2024/01/08 10:42:13;;;;;;;2.37;1.23;;;;;;;-0.39;73.55;101518.97;4968086;28;20256;-71
2024/01/08 10:44:40;;;;;;;1.50;0.87;;;;;;;-0.37;72.68;101522.59;4965277;28;20227;-71
2024/01/08 10:47:10;;;;;;;0.80;0.80;;;;;;;-0.42;71.64;101523.91;4968721;28;20203;-71
2024/01/08 10:49:49;;;;;;;1.83;1.20;;;;;;;-0.48;71.73;101518.25;4970720;28;20222;-73
2024/01/08 10:52:30;;;;;;;1.03;0.93;;;;;;;-0.53;70.66;101516.09;4970317;28;20205;-71
2024/01/08 10:55:01;;;;;;;2.87;1.07;;;;;;;-0.71;69.95;101518.22;4969590;28;20721;-71
2024/01/08 10:57:37;;;;;;;2.77;1.20;;;;;;;-0.85;69.73;101511.94;4966852;28;20621;-73
2024/01/08 11:00:08;;;;;;;2.07;0.70;;;;;;;-0.89;69.26;101535.91;4966405;28;20239;-71
2024/01/08 11:02:37;;;;;;;1.90;1.00;;;;;;;-0.96;70.27;101513.72;4962541;28;20210;-71
2024/01/08 11:05:07;;;;;;;0.80;0.80;;;;;;;-0.96;70.37;101516.31;4971833;28;20206;-74
2024/01/08 11:07:37;;;;;;;0.67;0.67;;;;;;;-0.89;70.89;101519.41;4970441;28;20575;-72
2024/01/08 11:10:04;;;;;;;4.23;2.30;;;;;;;-0.92;72.02;101509.66;4962169;28;20218;-73
2024/01/08 11:12:34;;;;;;;3.23;2.30;;;;;;;-1.06;70.93;101526.81;4968045;28;20212;-73
2024/01/08 11:15:05;;;;;;;3.37;2.13;;;;;;;-1.21;71.54;101522.09;4969208;28;20233;-72
2024/01/08 11:17:32;;;;;;;0.80;0.80;;;;;;;-1.21;72.36;101529.88;4968542;28;20233;-73
2024/01/08 11:19:59;;;;;;;2.73;1.27;;;;;;;-1.26;72.61;101516.53;4966797;28;20222;-72
2024/01/08 11:22:27;;;;;;;1.20;0.87;;;;;;;-1.25;72.27;101526.16;4970436;28;20213;-72